createdAt,value
2023-02-22T00:02:18.991Z,98777.03
2023-02-22T00:04:46.283Z,98776.50
2023-02-22T00:07:14.873Z,98774.44
2023-02-22T00:09:42.082Z,98765.13
2023-02-22T00:12:10.121Z,98779.50
2023-02-22T00:14:37.260Z,98772.56
2023-02-22T00:17:04.542Z,98771.28
2023-02-22T00:19:31.839Z,98775.03
2023-02-22T00:22:00.035Z,98773.84
2023-02-22T00:24:29.286Z,98774.56
2023-02-22T00:26:56.621Z,98768.66
2023-02-22T00:29:27.118Z,98772.66
2023-02-22T00:31:54.420Z,98775.16
2023-02-22T00:34:24.141Z,98771.84
2023-02-22T00:36:51.599Z,98762.97
2023-02-22T00:39:18.997Z,98768.06
2023-02-22T00:41:46.722Z,98770.34
2023-02-22T00:44:14.705Z,98762.19
2023-02-22T00:46:42.229Z,98764.88
2023-02-22T00:49:09.539Z,98769.13
2023-02-22T00:51:36.780Z,98768.38
2023-02-22T00:54:05.338Z,98761.59
2023-02-22T00:56:34.822Z,98760.34
2023-02-22T00:59:04.045Z,98761.72
2023-02-22T01:01:32.209Z,98757.44
2023-02-22T01:03:59.429Z,98762.03
2023-02-22T01:06:26.738Z,98757.66
2023-02-22T01:08:54.006Z,98757.38
2023-02-22T01:11:22.362Z,98755.50
2023-02-22T01:13:49.791Z,98749.03
2023-02-22T01:16:16.960Z,98749.97
2023-02-22T01:18:44.290Z,98753.34
2023-02-22T01:21:11.738Z,98745.09
2023-02-22T01:23:39.203Z,98754.91
2023-02-22T01:26:06.749Z,98746.81
2023-02-22T01:28:34.728Z,98745.31
2023-02-22T01:31:03.136Z,98742.16
2023-02-22T01:33:31.742Z,98746.47
2023-02-22T01:36:00.176Z,98745.53
2023-02-22T01:38:28.143Z,98730.22
2023-02-22T01:40:55.665Z,98733.78
2023-02-22T01:43:32.641Z,98734.34
2023-02-22T01:46:26.683Z,98734.44
2023-02-22T01:49:06.268Z,98735.81
2023-02-22T01:51:44.209Z,98738.88
2023-02-22T01:54:20.637Z,98736.19
2023-02-22T01:57:00.862Z,98735.06
2023-02-22T01:59:35.249Z,98728.88
2023-02-22T02:02:05.848Z,98723.22
2023-02-22T02:04:34.975Z,98725.13
2023-02-22T02:07:13.798Z,98717.94
2023-02-22T02:09:52.830Z,98713.63
2023-02-22T02:12:23.522Z,98712.41
2023-02-22T02:14:51.926Z,98714.50
2023-02-22T02:17:23.781Z,98718.72
2023-02-22T02:20:08.944Z,98705.16
2023-02-22T02:23:22.275Z,98709.88
2023-02-22T02:26:11.472Z,98702.34
2023-02-22T02:29:22.649Z,98698.81
2023-02-22T02:32:32.220Z,98687.34
2023-02-22T02:36:01.174Z,98700.66
2023-02-22T02:38:43.652Z,98692.34
2023-02-22T02:41:42.340Z,98694.16
2023-02-22T02:44:45.610Z,98691.66
2023-02-22T02:47:29.238Z,98679.47
2023-02-22T02:50:20.221Z,98676.00
2023-02-22T02:52:49.416Z,98665.34
2023-02-22T02:55:19.101Z,98667.44
2023-02-22T02:57:46.341Z,98675.25
2023-02-22T03:00:24.772Z,98664.06
2023-02-22T03:04:34.375Z,98665.88
2023-02-22T03:07:29.104Z,98662.56
2023-02-22T03:20:04.886Z,98651.56
2023-02-22T03:25:47.393Z,98640.28
2023-02-22T03:28:20.400Z,98644.97
2023-02-22T03:31:04.241Z,98639.28
2023-02-22T03:33:45.682Z,98641.66
2023-02-22T03:36:24.960Z,98638.03
2023-02-22T03:38:59.466Z,98634.25
2023-02-22T03:41:29.965Z,98632.97
2023-02-22T03:44:09.646Z,98635.06
2023-02-22T03:47:08.983Z,98631.19
2023-02-22T03:49:50.159Z,98635.22
2023-02-22T03:52:17.897Z,98633.00
2023-02-22T03:54:45.730Z,98638.38
2023-02-22T03:57:24.742Z,98635.41
2023-02-22T04:00:06.720Z,98641.94
2023-02-22T04:02:41.783Z,98641.16
2023-02-22T04:05:14.246Z,98636.25
2023-02-22T04:07:43.365Z,98645.81
2023-02-22T04:10:14.995Z,98642.47
2023-02-22T04:12:42.634Z,98640.56
2023-02-22T04:15:15.541Z,98638.91
2023-02-22T04:17:43.826Z,98644.31
2023-02-22T04:20:15.144Z,98639.97
2023-02-22T04:22:48.659Z,98635.22
2023-02-22T04:25:16.785Z,98628.34
2023-02-22T04:27:45.820Z,98631.44
2023-02-22T04:30:13.427Z,98629.91
2023-02-22T04:32:48.091Z,98632.91
2023-02-22T04:35:18.212Z,98636.75
2023-02-22T04:37:45.565Z,98633.81
2023-02-22T04:40:15.259Z,98638.44
2023-02-22T04:42:43.557Z,98635.91
2023-02-22T04:45:11.959Z,98636.94
2023-02-22T04:47:40.495Z,98635.88
2023-02-22T04:50:11.495Z,98633.69
2023-02-22T04:52:39.271Z,98626.38
2023-02-22T04:55:07.770Z,98624.28
2023-02-22T04:57:36.753Z,98625.53
2023-02-22T05:00:06.761Z,98623.00
2023-02-22T05:02:39.715Z,98624.91
2023-02-22T05:05:07.438Z,98628.06
2023-02-22T05:07:35.615Z,98624.06
2023-02-22T05:10:03.739Z,98626.56
2023-02-22T05:12:30.973Z,98620.63
2023-02-22T05:14:58.129Z,98620.63
2023-02-22T05:17:25.321Z,98624.47
2023-02-22T05:19:52.533Z,98619.44
2023-02-22T05:22:19.741Z,98617.75
2023-02-22T05:24:46.934Z,98626.00
2023-02-22T05:27:14.208Z,98619.00
2023-02-22T05:29:41.627Z,98613.13
2023-02-22T05:32:08.786Z,98612.06
2023-02-22T05:34:36.075Z,98612.06
2023-02-22T05:37:05.514Z,98610.72
2023-02-22T05:39:32.870Z,98607.50
2023-02-22T05:42:00.123Z,98608.84
2023-02-22T05:44:28.003Z,98610.56
2023-02-22T05:46:55.542Z,98605.06
2023-02-22T05:49:23.070Z,98611.00
2023-02-22T05:51:50.310Z,98611.59
2023-02-22T05:54:17.619Z,98604.22
2023-02-22T05:56:44.792Z,98609.06
2023-02-22T05:59:11.948Z,98600.81
2023-02-22T06:01:39.368Z,98600.41
2023-02-22T06:04:06.683Z,98601.66
2023-02-22T06:06:33.916Z,98598.47
2023-02-22T06:09:01.610Z,98600.16
2023-02-22T06:11:28.852Z,98600.38
2023-02-22T06:13:57.044Z,98599.75
2023-02-22T06:16:24.282Z,98599.16
2023-02-22T06:18:54.126Z,98601.69
2023-02-22T06:21:21.362Z,98604.88
2023-02-22T06:23:48.658Z,98605.09
2023-02-22T06:26:19.887Z,98611.00
2023-02-22T06:28:47.509Z,98607.16
2023-02-22T06:31:15.663Z,98602.28
2023-02-22T06:33:43.152Z,98605.63
2023-02-22T06:36:10.730Z,98604.59
2023-02-22T06:38:37.962Z,98610.06
2023-02-22T06:41:05.471Z,98604.53
2023-02-22T06:43:32.564Z,98611.50
2023-02-22T06:45:59.772Z,98601.75
2023-02-22T06:48:27.086Z,98617.53
2023-02-22T06:50:54.280Z,98611.41
2023-02-22T06:53:21.544Z,98612.38
2023-02-22T06:55:48.731Z,98616.28
2023-02-22T06:58:15.955Z,98613.88
2023-02-22T07:00:46.994Z,98615.50
2023-02-22T07:03:14.451Z,98608.94
2023-02-22T07:05:41.947Z,98620.56
2023-02-22T07:08:09.411Z,98618.56
2023-02-22T07:10:38.736Z,98612.03
2023-02-22T07:13:08.704Z,98616.38
2023-02-22T07:15:36.619Z,98611.50
2023-02-22T07:18:04.740Z,98611.53
2023-02-22T07:20:33.109Z,98609.72
2023-02-22T07:23:01.290Z,98606.31
2023-02-22T07:25:28.422Z,98618.25
2023-02-22T07:27:55.521Z,98614.31
2023-02-22T07:30:31.166Z,98612.88
2023-02-22T07:33:06.340Z,98613.91
2023-02-22T07:35:44.090Z,98612.94
2023-02-22T07:38:11.336Z,98607.31
2023-02-22T07:40:39.785Z,98618.50
2023-02-22T07:43:22.689Z,98612.00
2023-02-22T07:45:53.499Z,98615.13
2023-02-22T07:48:25.925Z,98618.09
2023-02-22T07:50:53.586Z,98617.13
2023-02-22T07:53:33.410Z,98606.34
2023-02-22T07:56:05.175Z,98609.19
2023-02-22T07:58:33.290Z,98608.69
2023-02-22T08:01:02.151Z,98616.25
2023-02-22T08:03:36.351Z,98614.44
2023-02-22T08:06:07.476Z,98614.25
2023-02-22T08:08:34.828Z,98612.28
2023-02-22T08:11:02.263Z,98619.69
2023-02-22T08:13:29.728Z,98607.72
2023-02-22T08:15:56.981Z,98612.28
2023-02-22T08:18:31.228Z,98612.19
2023-02-22T08:20:58.617Z,98608.78
2023-02-22T08:23:27.145Z,98604.22
2023-02-22T08:25:55.916Z,98614.78
2023-02-22T08:28:25.334Z,98613.38
2023-02-22T08:30:52.870Z,98608.06
2023-02-22T08:33:22.140Z,98603.00
2023-02-22T08:35:50.311Z,98614.84
2023-02-22T08:38:32.184Z,98610.13
2023-02-22T08:40:59.517Z,98619.56
2023-02-22T08:43:28.409Z,98618.16
2023-02-22T08:45:57.659Z,98616.94
2023-02-22T08:48:25.698Z,98624.59
2023-02-22T08:50:53.288Z,98611.41
2023-02-22T08:53:20.697Z,98621.72
2023-02-22T08:55:47.984Z,98627.38
2023-02-22T08:58:15.250Z,98614.22
2023-02-22T09:00:47.277Z,98613.59
2023-02-22T09:03:15.646Z,98615.38
2023-02-22T09:05:44.681Z,98599.09
2023-02-22T09:08:17.545Z,98606.22
2023-02-22T09:10:45.343Z,98606.41
2023-02-22T09:13:14.033Z,98601.94
2023-02-22T09:15:41.381Z,98602.88
2023-02-22T09:18:14.558Z,98609.63
2023-02-22T09:20:42.544Z,98605.63
2023-02-22T09:23:11.293Z,98600.78
2023-02-22T09:25:40.968Z,98604.00
2023-02-22T09:28:09.468Z,98603.81
2023-02-22T09:30:37.964Z,98604.41
2023-02-22T09:33:11.868Z,98600.22
2023-02-22T09:35:46.365Z,98599.31
2023-02-22T09:38:24.629Z,98601.56
2023-02-22T09:41:34.623Z,98597.22
2023-02-22T09:44:40.423Z,98597.94
2023-02-22T09:47:32.549Z,98598.78
2023-02-22T09:50:17.458Z,98602.28
2023-02-22T09:53:04.986Z,98594.13
2023-02-22T09:55:41.129Z,98590.59
2023-02-22T09:58:41.701Z,98593.63
2023-02-22T10:01:51.334Z,98593.63
2023-02-22T10:05:14.099Z,98598.19
2023-02-22T10:07:55.705Z,98598.06
2023-02-22T10:10:33.839Z,98592.13
2023-02-22T10:14:17.806Z,98584.59
2023-02-22T10:17:33.591Z,98579.78
2023-02-22T10:20:41.075Z,98584.59
2023-02-22T10:23:55.291Z,98582.38
2023-02-22T10:26:36.744Z,98566.78
2023-02-22T10:29:32.751Z,98568.25
2023-02-22T10:32:06.151Z,98574.31
2023-02-22T10:34:45.669Z,98565.22
2023-02-22T10:37:30.700Z,98568.28
2023-02-22T10:40:23.039Z,98567.41
2023-02-22T10:42:50.733Z,98561.19
2023-02-22T10:45:34.653Z,98549.19
2023-02-22T10:48:14.554Z,98557.84
2023-02-22T10:50:45.651Z,98553.22
2023-02-22T10:53:15.435Z,98556.53
2023-02-22T10:56:21.430Z,98551.69
2023-02-22T10:59:04.137Z,98543.25
2023-02-22T11:01:31.344Z,98545.88
2023-02-22T11:04:20.772Z,98533.75
2023-02-22T11:06:59.615Z,98530.69
2023-02-22T11:09:29.217Z,98532.31
2023-02-22T11:12:29.024Z,98528.13
2023-02-22T11:14:57.587Z,98526.16
2023-02-22T11:17:34.520Z,98523.84
2023-02-22T11:20:01.938Z,98516.47
2023-02-22T11:22:41.214Z,98514.09
2023-02-22T11:25:19.167Z,98520.09
2023-02-22T11:27:46.962Z,98512.88
2023-02-22T11:30:29.527Z,98515.25
2023-02-22T11:33:17.368Z,98505.00
2023-02-22T11:35:58.161Z,98499.63
2023-02-22T11:38:39.985Z,98502.84
2023-02-22T11:41:27.799Z,98506.88
2023-02-22T11:43:55.033Z,98485.22
2023-02-22T11:46:35.689Z,98492.38
2023-02-22T11:49:17.305Z,98496.19
2023-02-22T11:52:03.460Z,98487.09
2023-02-22T11:54:49.456Z,98478.94
2023-02-22T11:58:08.407Z,98474.22
2023-02-22T12:01:22.939Z,98470.50
2023-02-22T12:04:36.296Z,98465.63
2023-02-22T12:07:24.737Z,98462.53
2023-02-22T12:10:26.197Z,98460.06
2023-02-22T12:13:50.892Z,98456.28
2023-02-22T12:16:55.872Z,98450.88
2023-02-22T12:19:39.100Z,98444.25
2023-02-22T12:22:21.563Z,98451.78
2023-02-22T12:25:22.188Z,98441.94
2023-02-22T12:28:10.033Z,98440.78
2023-02-22T12:31:08.532Z,98444.13
2023-02-22T12:34:09.436Z,98446.41
2023-02-22T12:36:48.690Z,98438.31
2023-02-22T12:39:53.293Z,98436.59
2023-02-22T12:42:47.121Z,98438.00
2023-02-22T12:45:57.283Z,98439.53
2023-02-22T12:49:02.917Z,98442.19
2023-02-22T12:52:20.903Z,98442.84
2023-02-22T12:55:00.591Z,98439.00
2023-02-22T12:58:23.152Z,98433.09
2023-02-22T13:01:01.167Z,98433.69
2023-02-22T13:03:40.327Z,98427.78
2023-02-22T13:07:05.390Z,98432.28
2023-02-22T13:10:20.374Z,98425.06
2023-02-22T13:13:08.587Z,98423.56
2023-02-22T13:16:40.185Z,98423.53
2023-02-22T13:19:44.250Z,98421.72
2023-02-22T13:22:45.746Z,98416.03
2023-02-22T13:25:55.243Z,98417.00
2023-02-22T13:28:49.285Z,98418.53
2023-02-22T13:31:41.237Z,98417.41
2023-02-22T13:34:54.218Z,98424.44
2023-02-22T13:37:49.131Z,98427.53
2023-02-22T13:41:06.244Z,98413.38
2023-02-22T13:43:54.938Z,98419.56
2023-02-22T13:47:27.967Z,98410.13
2023-02-22T13:50:22.397Z,98409.03
2023-02-22T13:52:54.609Z,98405.84
2023-02-22T13:55:32.701Z,98394.84
2023-02-22T13:58:07.063Z,98405.41
2023-02-22T14:00:58.341Z,98404.56
2023-02-22T14:03:43.803Z,98402.38
2023-02-22T14:06:41.682Z,98403.59
2023-02-22T14:09:56.110Z,98412.56
2023-02-22T14:12:34.985Z,98405.94
2023-02-22T14:15:28.288Z,98400.78
2023-02-22T14:18:03.282Z,98405.06
2023-02-22T14:20:36.062Z,98403.16
2023-02-22T14:23:47.379Z,98402.59
2023-02-22T14:26:34.816Z,98406.25
2023-02-22T14:29:08.037Z,98397.66
2023-02-22T14:32:00.309Z,98401.34
2023-02-22T14:34:58.349Z,98403.41
2023-02-22T14:37:36.678Z,98398.53
2023-02-22T14:40:28.134Z,98393.91
2023-02-22T14:43:26.079Z,98400.72
2023-02-22T14:46:00.312Z,98398.72
2023-02-22T14:48:42.888Z,98398.03
2023-02-22T14:51:27.028Z,98394.63
2023-02-22T14:55:16.743Z,98388.63
2023-02-22T14:58:19.611Z,98386.34
2023-02-22T15:00:53.063Z,98392.75
2023-02-22T15:03:37.283Z,98394.25
2023-02-22T15:06:28.785Z,98387.03
2023-02-22T15:09:36.570Z,98387.41
2023-02-22T15:12:03.631Z,98391.63
2023-02-22T15:14:38.905Z,98396.91
2023-02-22T15:17:25.449Z,98399.94
2023-02-22T15:19:54.987Z,98391.50
2023-02-22T15:22:35.469Z,98389.06
2023-02-22T15:25:09.530Z,98392.13
2023-02-22T15:27:39.345Z,98390.78
2023-02-22T15:30:26.636Z,98391.06
2023-02-22T15:33:04.112Z,98393.25
2023-02-22T15:35:33.919Z,98394.50
2023-02-22T15:38:09.044Z,98387.00
2023-02-22T15:40:42.809Z,98388.66
2023-02-22T15:43:25.086Z,98397.28
2023-02-22T15:45:52.798Z,98394.56
2023-02-22T15:48:20.228Z,98390.75
2023-02-22T15:51:10.589Z,98393.09
2023-02-22T15:53:44.232Z,98396.88
2023-02-22T15:56:25.787Z,98393.94
2023-02-22T15:59:11.436Z,98392.78
2023-02-22T16:01:44.193Z,98396.19
2023-02-22T16:04:22.204Z,98393.69
2023-02-22T16:07:17.013Z,98394.44
2023-02-22T16:09:51.327Z,98395.03
2023-02-22T16:12:21.364Z,98398.84
2023-02-22T16:14:50.118Z,98394.78
2023-02-22T16:17:49.406Z,98401.28
2023-02-22T16:20:24.830Z,98406.72
2023-02-22T16:22:52.039Z,98410.91
2023-02-22T16:25:19.072Z,98412.44
2023-02-22T16:27:49.727Z,98412.44
2023-02-22T16:30:37.506Z,98407.34
2023-02-22T16:33:13.805Z,98409.75
2023-02-22T16:35:51.719Z,98412.88
2023-02-22T16:38:21.067Z,98404.59
2023-02-22T16:40:56.122Z,98409.41
2023-02-22T16:43:32.725Z,98404.72
2023-02-22T16:46:06.867Z,98409.03
2023-02-22T16:48:38.070Z,98398.97
2023-02-22T16:51:27.094Z,98408.44
2023-02-22T16:53:56.426Z,98405.91
2023-02-22T16:56:31.098Z,98406.56
2023-02-22T16:59:11.397Z,98405.16
2023-02-22T17:01:38.790Z,98398.72
2023-02-22T17:04:28.638Z,98397.31
2023-02-22T17:06:58.851Z,98396.94
2023-02-22T17:09:26.659Z,98405.66
2023-02-22T17:11:55.263Z,98407.44
2023-02-22T17:14:35.141Z,98412.06
2023-02-22T17:17:03.449Z,98421.06
2023-02-22T17:19:30.680Z,98414.34
2023-02-22T17:21:59.094Z,98414.50
2023-02-22T17:24:29.601Z,98421.16
2023-02-22T17:26:59.224Z,98422.31
2023-02-22T17:29:27.954Z,98431.94
2023-02-22T17:31:55.399Z,98436.44
2023-02-22T17:34:22.934Z,98437.13
2023-02-22T17:36:50.229Z,98446.63
2023-02-22T17:39:17.598Z,98451.44
2023-02-22T17:41:44.777Z,98454.75
2023-02-22T17:44:12.863Z,98457.59
2023-02-22T17:46:42.759Z,98456.91
2023-02-22T17:49:10.696Z,98465.66
2023-02-22T17:51:40.878Z,98457.06
2023-02-22T17:54:10.339Z,98457.16
2023-02-22T17:56:37.650Z,98458.81
2023-02-22T17:59:04.894Z,98462.47
2023-02-22T18:01:38.185Z,98467.50
2023-02-22T18:04:06.155Z,98467.50
2023-02-22T18:06:33.382Z,98466.91
2023-02-22T18:09:01.573Z,98466.06
2023-02-22T18:11:32.543Z,98469.50
2023-02-22T18:14:00.172Z,98455.28
2023-02-22T18:16:27.733Z,98457.81
2023-02-22T18:18:56.937Z,98470.94
2023-02-22T18:21:26.683Z,98468.44
2023-02-22T18:23:54.933Z,98467.56
2023-02-22T18:26:24.362Z,98470.31
2023-02-22T18:28:53.642Z,98473.16
2023-02-22T18:31:23.611Z,98475.41
2023-02-22T18:33:53.077Z,98474.81
2023-02-22T18:36:22.992Z,98470.03
2023-02-22T18:38:54.873Z,98468.34
2023-02-22T18:41:25.793Z,98463.88
2023-02-22T18:43:55.390Z,98456.38
2023-02-22T18:46:24.796Z,98459.38
2023-02-22T18:48:56.426Z,98464.94
2023-02-22T18:51:26.141Z,98462.91
2023-02-22T18:54:00.284Z,98464.88
2023-02-22T18:56:30.258Z,98476.81
2023-02-22T18:59:01.913Z,98466.50
2023-02-22T19:01:31.628Z,98467.50
2023-02-22T19:04:00.856Z,98476.16
2023-02-22T19:06:28.080Z,98466.75
2023-02-22T19:08:55.454Z,98464.19
2023-02-22T19:11:24.751Z,98479.81
2023-02-22T19:13:57.604Z,98481.34
2023-02-22T19:16:28.121Z,98472.78
2023-02-22T19:18:57.811Z,98471.41
2023-02-22T19:21:29.230Z,98465.03
2023-02-22T19:24:06.746Z,98469.78
2023-02-22T19:26:33.988Z,98469.41
2023-02-22T19:29:08.426Z,98471.19
2023-02-22T19:31:35.866Z,98473.56
2023-02-22T19:34:09.263Z,98464.16
2023-02-22T19:36:48.109Z,98472.03
2023-02-22T19:39:19.122Z,98470.06
2023-02-22T19:41:47.355Z,98482.03
2023-02-22T19:44:14.830Z,98488.13
2023-02-22T19:46:42.827Z,98484.66
2023-02-22T19:49:10.236Z,98483.72
2023-02-22T19:51:37.539Z,98488.44
2023-02-22T19:54:08.722Z,98490.31
2023-02-22T19:56:35.931Z,98476.53
2023-02-22T19:59:13.941Z,98477.06
2023-02-22T20:01:44.506Z,98482.25
2023-02-22T20:04:21.416Z,98487.91
2023-02-22T20:06:55.051Z,98486.13
2023-02-22T20:09:39.548Z,98491.66
2023-02-22T20:12:08.080Z,98491.78
2023-02-22T20:14:35.848Z,98491.91
2023-02-22T20:17:04.635Z,98497.16
2023-02-22T20:19:31.933Z,98493.28
2023-02-22T20:22:00.323Z,98494.09
2023-02-22T20:24:27.774Z,98486.97
2023-02-22T20:26:57.074Z,98481.50
2023-02-22T20:29:31.426Z,98498.28
2023-02-22T20:32:02.332Z,98496.53
2023-02-22T20:34:33.496Z,98494.69
2023-02-22T20:37:05.303Z,98493.47
2023-02-22T20:39:32.928Z,98497.06
2023-02-22T20:42:00.552Z,98495.16
2023-02-22T20:44:28.707Z,98501.41
2023-02-22T20:46:56.380Z,98499.44
2023-02-22T20:49:24.065Z,98505.56
2023-02-22T20:51:51.631Z,98503.84
2023-02-22T20:54:18.976Z,98507.25
2023-02-22T20:56:47.724Z,98499.19
2023-02-22T20:59:19.299Z,98498.97
2023-02-22T21:01:49.290Z,98501.88
2023-02-22T21:04:17.537Z,98501.63
2023-02-22T21:06:46.597Z,98506.28
2023-02-22T21:14:59.850Z,98506.88
2023-02-22T21:17:29.451Z,98501.88
2023-02-22T21:19:58.350Z,98512.22
2023-02-22T21:22:25.644Z,98515.91
2023-02-22T21:24:53.404Z,98518.75
2023-02-22T21:27:20.574Z,98508.25
2023-02-22T21:29:47.813Z,98503.78
2023-02-22T21:32:15.201Z,98507.16
2023-02-22T21:34:42.659Z,98512.66
2023-02-22T21:37:10.030Z,98510.91
2023-02-22T21:39:37.314Z,98503.28
2023-02-22T21:42:07.126Z,98502.75
2023-02-22T21:44:34.381Z,98506.53
2023-02-22T21:47:01.596Z,98499.16
2023-02-22T21:49:28.975Z,98505.44
2023-02-22T21:51:56.434Z,98513.41
2023-02-22T21:54:24.202Z,98513.28
2023-02-22T21:56:52.072Z,98507.47
2023-02-22T21:59:23.766Z,98507.41
2023-02-22T22:01:56.501Z,98505.97
2023-02-22T22:04:30.298Z,98504.91
2023-02-22T22:07:01.662Z,98506.41
2023-02-22T22:09:33.261Z,98501.50
2023-02-22T22:12:05.634Z,98505.97
2023-02-22T22:14:35.881Z,98504.22
2023-02-22T22:17:07.012Z,98502.81
2023-02-22T22:19:41.598Z,98493.75
2023-02-22T22:22:09.202Z,98493.91
2023-02-22T22:24:37.518Z,98501.13
2023-02-22T22:27:06.503Z,98499.25
2023-02-22T22:29:34.511Z,98500.94
2023-02-22T22:32:03.460Z,98494.84
2023-02-22T22:34:31.150Z,98502.66
2023-02-22T22:37:04.386Z,98508.03
2023-02-22T22:39:31.801Z,98503.06
2023-02-22T22:41:59.520Z,98498.72
2023-02-22T22:44:32.868Z,98494.91
2023-02-22T22:47:05.952Z,98498.13
2023-02-22T22:49:40.275Z,98500.75
2023-02-22T22:52:08.866Z,98503.31
2023-02-22T22:54:38.343Z,98507.50
2023-02-22T22:57:06.441Z,98505.75
2023-02-22T22:59:34.521Z,98503.31
2023-02-22T23:02:11.417Z,98508.59
2023-02-22T23:04:38.617Z,98508.03
2023-02-22T23:07:08.980Z,98513.06
2023-02-22T23:09:38.688Z,98511.38
2023-02-22T23:12:10.158Z,98511.56
2023-02-22T23:14:44.267Z,98502.56
2023-02-22T23:17:30.762Z,98507.44
2023-02-22T23:19:58.003Z,98507.44
2023-02-22T23:22:25.224Z,98518.47
2023-02-22T23:24:52.545Z,98505.22
2023-02-22T23:27:19.684Z,98509.28
2023-02-22T23:29:47.186Z,98503.06
2023-02-22T23:32:14.665Z,98506.16
2023-02-22T23:34:41.980Z,98512.66
2023-02-22T23:37:10.537Z,98513.22
2023-02-22T23:39:38.652Z,98512.41
2023-02-22T23:42:08.735Z,98498.94
2023-02-22T23:44:36.704Z,98503.78
2023-02-22T23:47:04.397Z,98497.75
2023-02-22T23:49:36.013Z,98502.28
2023-02-22T23:52:09.247Z,98505.13
2023-02-22T23:54:43.591Z,98501.56
2023-02-22T23:57:10.943Z,98500.97
2023-02-22T23:59:41.138Z,98505.00
